createdAt,value
2022-10-08T00:01:23.779Z,13.05
2022-10-08T00:03:56.050Z,13.04
2022-10-08T00:06:30.216Z,13.02
2022-10-08T00:09:07.128Z,13.00
2022-10-08T00:11:39.360Z,13.00
2022-10-08T00:14:08.288Z,12.98
2022-10-08T00:16:40.261Z,12.97
2022-10-08T00:19:13.577Z,12.96
2022-10-08T00:21:44.116Z,13.00
2022-10-08T00:24:18.467Z,13.05
2022-10-08T00:26:46.025Z,13.09
2022-10-08T00:29:16.795Z,13.16
2022-10-08T00:31:46.957Z,13.21
2022-10-08T00:34:23.441Z,13.29
2022-10-08T00:36:55.434Z,13.34
2022-10-08T00:39:25.170Z,13.37
2022-10-08T00:41:55.618Z,13.43
2022-10-08T00:44:47.924Z,13.46
2022-10-08T00:47:36.692Z,13.51
2022-10-08T00:50:35.518Z,13.53
2022-10-08T00:53:07.835Z,13.58
2022-10-08T00:55:38.840Z,13.62
2022-10-08T00:58:25.439Z,13.64
2022-10-08T01:00:53.397Z,13.67
2022-10-08T01:03:20.691Z,13.69
2022-10-08T01:06:06.854Z,13.73
2022-10-08T01:08:51.412Z,13.75
2022-10-08T01:11:42.704Z,13.78
2022-10-08T01:14:52.387Z,13.83
2022-10-08T01:17:42.737Z,13.87
2022-10-08T01:20:49.129Z,13.87
2022-10-08T01:24:04.546Z,13.88
2022-10-08T01:26:56.731Z,13.90
2022-10-08T01:29:37.933Z,13.92
2022-10-08T01:32:13.981Z,13.95
2022-10-08T01:35:02.972Z,13.97
2022-10-08T01:37:34.458Z,13.99
2022-10-08T01:40:05.741Z,14.01
2022-10-08T01:42:35.334Z,14.05
2022-10-08T01:45:09.473Z,14.08
2022-10-08T01:47:41.170Z,14.12
2022-10-08T01:50:18.440Z,14.11
2022-10-08T01:52:52.561Z,14.11
2022-10-08T01:55:31.505Z,14.09
2022-10-08T01:58:14.432Z,14.08
2022-10-08T02:00:42.246Z,14.05
2022-10-08T02:03:13.499Z,14.03
2022-10-08T02:05:48.699Z,14.02
2022-10-08T02:08:15.796Z,13.99
2022-10-08T02:10:43.575Z,13.98
2022-10-08T02:13:12.067Z,13.93
2022-10-08T02:15:54.848Z,13.85
2022-10-08T02:18:47.928Z,13.76
2022-10-08T02:21:26.966Z,13.70
2022-10-08T02:24:16.989Z,13.67
2022-10-08T02:26:50.995Z,13.60
2022-10-08T02:29:43.196Z,13.59
2022-10-08T02:32:31.331Z,13.55
2022-10-08T02:35:09.192Z,13.51
2022-10-08T02:37:46.180Z,13.48
2022-10-08T02:40:17.578Z,13.45
2022-10-08T02:42:53.041Z,13.43
2022-10-08T02:45:28.475Z,13.39
2022-10-08T02:48:18.440Z,13.36
2022-10-08T02:50:49.130Z,13.33
2022-10-08T02:53:18.298Z,13.30
2022-10-08T02:56:10.649Z,13.29
2022-10-08T02:58:38.019Z,13.24
2022-10-08T03:01:42.983Z,13.24
2022-10-08T03:04:36.388Z,13.20
2022-10-08T03:07:04.162Z,13.16
2022-10-08T03:09:51.823Z,13.15
2022-10-08T03:12:19.888Z,13.13
2022-10-08T03:14:49.721Z,13.14
2022-10-08T03:17:24.330Z,13.13
2022-10-08T03:19:51.991Z,13.12
2022-10-08T03:22:19.467Z,13.09
2022-10-08T03:24:46.511Z,13.08
2022-10-08T03:27:13.942Z,13.07
2022-10-08T03:29:41.210Z,13.05
2022-10-08T03:32:09.450Z,13.05
2022-10-08T03:34:36.433Z,13.06
2022-10-08T03:37:04.243Z,13.06
2022-10-08T03:39:31.234Z,13.06
2022-10-08T03:42:29.467Z,13.08
2022-10-08T03:45:12.001Z,13.05
2022-10-08T03:47:39.284Z,13.06
2022-10-08T03:50:23.610Z,13.06
2022-10-08T03:52:51.097Z,13.04
2022-10-08T03:55:18.130Z,13.06
2022-10-08T03:57:45.264Z,13.06
2022-10-08T04:00:13.144Z,13.05
2022-10-08T04:02:40.287Z,13.01
2022-10-08T04:05:07.836Z,12.94
2022-10-08T04:07:35.098Z,12.86
2022-10-08T04:10:02.241Z,12.80
2022-10-08T04:12:29.946Z,12.74
2022-10-08T04:14:57.195Z,12.68
2022-10-08T04:17:24.389Z,12.68
2022-10-08T04:19:52.927Z,12.70
2022-10-08T04:22:20.148Z,12.75
2022-10-08T04:24:47.292Z,12.80
2022-10-08T04:27:14.480Z,12.85
2022-10-08T04:29:41.581Z,12.90
2022-10-08T04:32:08.872Z,12.93
2022-10-08T04:34:35.941Z,12.98
2022-10-08T04:37:02.965Z,13.01
2022-10-08T04:39:29.918Z,13.02
2022-10-08T04:41:57.174Z,13.05
2022-10-08T04:44:24.284Z,13.07
2022-10-08T04:46:51.517Z,13.07
2022-10-08T04:49:19.549Z,13.07
2022-10-08T04:51:46.614Z,13.07
2022-10-08T04:54:13.580Z,13.10
2022-10-08T04:56:40.709Z,13.12
2022-10-08T04:59:07.739Z,13.13
2022-10-08T05:01:34.923Z,13.14
2022-10-08T05:04:02.288Z,13.17
2022-10-08T05:06:31.073Z,13.18
2022-10-08T05:09:03.134Z,13.22
2022-10-08T05:11:31.388Z,13.23
2022-10-08T05:13:59.459Z,13.27
2022-10-08T05:16:27.188Z,13.23
2022-10-08T05:18:54.711Z,13.23
2022-10-08T05:21:28.765Z,13.21
2022-10-08T05:24:01.752Z,13.17
2022-10-08T05:26:56.759Z,13.14
2022-10-08T05:29:20.213Z,13.13
2022-10-08T05:31:47.714Z,13.12
2022-10-08T05:34:15.436Z,13.11
2022-10-08T05:36:42.934Z,13.12
2022-10-08T05:39:11.338Z,13.14
2022-10-08T05:41:38.970Z,13.14
2022-10-08T05:44:08.027Z,13.16
2022-10-08T05:46:36.575Z,13.17
2022-10-08T05:49:06.722Z,13.19
2022-10-08T05:51:34.367Z,13.20
2022-10-08T05:54:01.596Z,13.21
2022-10-08T05:56:29.661Z,13.23
2022-10-08T05:58:56.622Z,13.25
2022-10-08T06:01:31.326Z,13.28
2022-10-08T06:04:08.804Z,13.26
2022-10-08T06:06:38.416Z,13.26
2022-10-08T06:09:07.230Z,13.27
2022-10-08T06:11:37.506Z,13.29
2022-10-08T06:14:07.050Z,13.30
2022-10-08T06:16:34.759Z,13.34
2022-10-08T06:19:03.240Z,13.33
2022-10-08T06:21:31.503Z,13.36
2022-10-08T06:24:03.495Z,13.37
2022-10-08T06:26:35.920Z,13.38
2022-10-08T06:29:05.938Z,13.41
2022-10-08T06:31:34.915Z,13.41
2022-10-08T06:34:04.526Z,13.42
2022-10-08T06:36:33.763Z,13.40
2022-10-08T06:39:04.475Z,13.41
2022-10-08T06:41:35.047Z,13.38
2022-10-08T06:44:05.080Z,13.38
2022-10-08T06:46:33.458Z,13.37
2022-10-08T06:49:01.888Z,13.37
2022-10-08T06:51:29.844Z,13.38
2022-10-08T06:54:06.016Z,13.40
2022-10-08T06:56:36.101Z,13.41
2022-10-08T06:59:05.175Z,13.44
2022-10-08T07:01:34.117Z,13.48
2022-10-08T07:04:02.600Z,13.56
2022-10-08T07:06:29.922Z,13.73
2022-10-08T07:09:00.552Z,13.98
2022-10-08T07:11:28.212Z,14.12
2022-10-08T07:13:56.541Z,14.17
2022-10-08T07:16:26.650Z,14.27
2022-10-08T07:18:56.426Z,14.33
2022-10-08T07:21:23.894Z,14.35
2022-10-08T07:23:51.496Z,14.45
2022-10-08T07:26:26.648Z,14.58
2022-10-08T07:29:04.540Z,14.67
2022-10-08T07:31:35.588Z,14.58
2022-10-08T07:34:06.903Z,14.54
2022-10-08T07:36:34.643Z,14.48
2022-10-08T07:39:06.265Z,14.44
2022-10-08T07:41:33.967Z,14.42
2022-10-08T07:44:02.636Z,14.62
2022-10-08T07:46:32.895Z,14.50
2022-10-08T07:49:01.693Z,14.54
2022-10-08T07:51:31.607Z,14.77
2022-10-08T07:54:02.736Z,14.94
2022-10-08T07:56:30.931Z,15.28
2022-10-08T07:59:00.120Z,15.56
2022-10-08T08:01:29.851Z,15.57
2022-10-08T08:04:04.032Z,15.44
2022-10-08T08:06:33.169Z,15.37
2022-10-08T08:09:01.461Z,15.31
2022-10-08T08:11:29.688Z,15.66
2022-10-08T08:13:57.156Z,15.76
2022-10-08T08:16:26.981Z,16.02
2022-10-08T08:18:58.093Z,16.17
2022-10-08T08:21:29.537Z,16.24
2022-10-08T08:23:59.001Z,16.02
2022-10-08T08:26:32.734Z,15.90
2022-10-08T08:29:03.216Z,15.56
2022-10-08T08:31:37.106Z,15.74
2022-10-08T08:34:10.241Z,15.65
2022-10-08T08:36:44.291Z,15.60
2022-10-08T08:39:21.352Z,15.59
2022-10-08T08:41:58.284Z,15.70
2022-10-08T08:44:40.100Z,15.54
2022-10-08T08:47:24.522Z,15.59
2022-10-08T08:49:58.625Z,15.65
2022-10-08T08:52:29.889Z,15.71
2022-10-08T08:54:56.968Z,15.76
2022-10-08T08:58:03.013Z,15.84
2022-10-08T09:00:36.829Z,15.94
2022-10-08T09:03:31.397Z,16.08
2022-10-08T09:06:09.820Z,16.07
2022-10-08T09:09:16.013Z,16.15
2022-10-08T09:11:44.675Z,16.30
2022-10-08T09:14:17.360Z,16.39
2022-10-08T09:16:44.375Z,16.61
2022-10-08T09:19:11.367Z,16.92
2022-10-08T09:21:38.402Z,16.92
2022-10-08T09:24:05.631Z,17.22
2022-10-08T09:26:36.543Z,17.26
2022-10-08T09:29:05.525Z,17.58
2022-10-08T09:31:48.712Z,17.77
2022-10-08T09:34:20.070Z,17.87
2022-10-08T09:37:02.031Z,17.77
2022-10-08T09:39:35.961Z,17.65
2022-10-08T09:42:09.327Z,17.54
2022-10-08T09:44:47.477Z,17.47
2022-10-08T09:47:21.291Z,17.39
2022-10-08T09:50:19.665Z,17.58
2022-10-08T09:52:59.991Z,17.50
2022-10-08T09:55:35.304Z,17.72
2022-10-08T09:58:04.184Z,17.82
2022-10-08T10:00:39.643Z,18.05
2022-10-08T10:03:16.549Z,18.19
2022-10-08T10:05:44.778Z,18.28
2022-10-08T10:08:56.040Z,18.33
2022-10-08T10:11:39.426Z,18.35
2022-10-08T10:14:51.838Z,18.23
2022-10-08T10:17:40.519Z,18.14
2022-10-08T10:20:47.625Z,18.09
2022-10-08T10:23:28.977Z,18.13
2022-10-08T10:26:22.585Z,18.04
2022-10-08T10:29:02.070Z,17.97
2022-10-08T10:31:58.105Z,17.71
2022-10-08T10:34:28.993Z,17.69
2022-10-08T10:37:02.227Z,17.83
2022-10-08T10:39:38.234Z,18.09
2022-10-08T10:42:43.350Z,18.41
2022-10-08T10:45:26.228Z,18.60
2022-10-08T10:47:54.595Z,18.82
2022-10-08T10:50:45.855Z,19.06
2022-10-08T10:53:18.263Z,19.33
2022-10-08T10:56:04.473Z,19.28
2022-10-08T10:59:06.556Z,19.24
2022-10-08T11:01:52.130Z,18.97
2022-10-08T11:05:12.140Z,18.78
2022-10-08T11:08:00.248Z,18.70
2022-10-08T11:10:49.087Z,18.67
2022-10-08T11:13:49.445Z,18.27
2022-10-08T11:16:53.243Z,17.95
2022-10-08T11:19:42.271Z,17.97
2022-10-08T11:22:51.340Z,18.12
2022-10-08T11:26:09.830Z,18.31
2022-10-08T11:28:52.326Z,18.43
2022-10-08T11:31:40.347Z,18.57
2022-10-08T11:34:28.068Z,18.89
2022-10-08T11:37:14.253Z,19.15
2022-10-08T11:39:53.582Z,19.09
2022-10-08T11:42:48.347Z,19.13
2022-10-08T11:45:30.995Z,18.99
2022-10-08T11:48:02.439Z,19.16
2022-10-08T11:50:36.039Z,19.20
2022-10-08T11:53:17.749Z,19.18
2022-10-08T11:55:59.108Z,19.06
2022-10-08T11:58:31.066Z,19.01
2022-10-08T12:01:07.783Z,19.09
2022-10-08T12:03:59.004Z,18.90
2022-10-08T12:06:30.591Z,18.78
2022-10-08T12:09:07.642Z,18.80
2022-10-08T12:11:40.088Z,18.83
2022-10-08T12:14:12.942Z,18.76
2022-10-08T12:16:49.270Z,18.52
2022-10-08T12:19:35.093Z,18.34
2022-10-08T12:22:04.545Z,18.12
2022-10-08T12:24:37.210Z,17.88
2022-10-08T12:27:16.335Z,17.75
2022-10-08T12:30:09.350Z,17.51
2022-10-08T12:32:42.283Z,17.45
2022-10-08T12:35:48.716Z,17.52
2022-10-08T12:39:06.407Z,17.68
2022-10-08T12:42:09.599Z,17.80
2022-10-08T12:45:20.228Z,17.71
2022-10-08T12:48:10.698Z,17.64
2022-10-08T12:51:13.480Z,17.68
2022-10-08T12:53:46.667Z,17.99
2022-10-08T12:56:26.087Z,18.06
2022-10-08T12:59:01.550Z,17.90
2022-10-08T13:01:29.096Z,17.83
2022-10-08T13:04:20.853Z,17.70
2022-10-08T13:06:51.498Z,17.61
2022-10-08T13:09:26.495Z,17.59
2022-10-08T13:12:03.929Z,17.57
2022-10-08T13:14:39.994Z,17.62
2022-10-08T13:17:07.180Z,17.86
2022-10-08T13:19:40.023Z,18.01
2022-10-08T13:22:26.687Z,17.99
2022-10-08T13:24:53.683Z,18.19
2022-10-08T13:27:33.929Z,18.34
2022-10-08T13:30:27.491Z,18.50
2022-10-08T13:33:11.259Z,18.53
2022-10-08T13:35:40.492Z,18.53
2022-10-08T13:38:09.135Z,18.60
2022-10-08T13:40:36.268Z,18.62
2022-10-08T13:43:06.428Z,18.66
2022-10-08T13:45:39.391Z,18.73
2022-10-08T13:48:14.122Z,18.84
2022-10-08T13:50:50.176Z,18.93
2022-10-08T13:53:24.524Z,18.96
2022-10-08T13:55:51.748Z,18.94
2022-10-08T13:58:20.415Z,18.73
2022-10-08T14:00:48.412Z,18.50
2022-10-08T14:03:16.114Z,18.25
2022-10-08T14:05:48.215Z,18.21
2022-10-08T14:08:27.426Z,18.22
2022-10-08T14:10:58.247Z,18.25
2022-10-08T14:13:26.423Z,18.22
2022-10-08T14:15:54.108Z,18.14
2022-10-08T14:18:21.160Z,17.85
2022-10-08T14:20:51.237Z,17.95
2022-10-08T14:23:20.292Z,18.03
2022-10-08T14:25:47.378Z,18.10
2022-10-08T14:28:14.519Z,18.18
2022-10-08T14:30:41.582Z,18.34
2022-10-08T14:33:11.404Z,18.43
2022-10-08T14:35:39.594Z,18.43
2022-10-08T14:38:06.759Z,18.40
2022-10-08T14:40:34.040Z,18.32
2022-10-08T14:43:01.022Z,18.31
2022-10-08T14:45:28.045Z,18.28
2022-10-08T14:47:54.976Z,18.28
2022-10-08T14:50:21.927Z,18.30
2022-10-08T14:52:49.159Z,18.31
2022-10-08T14:55:16.436Z,18.34
2022-10-08T14:57:43.660Z,18.26
2022-10-08T15:00:13.271Z,18.13
2022-10-08T15:02:40.310Z,17.91
2022-10-08T15:05:07.761Z,17.70
2022-10-08T15:07:34.770Z,17.54
2022-10-08T15:10:01.753Z,17.35
2022-10-08T15:12:28.769Z,17.23
2022-10-08T15:14:55.911Z,17.15
2022-10-08T15:17:22.873Z,17.12
2022-10-08T15:19:49.887Z,17.11
2022-10-08T15:22:16.890Z,17.08
2022-10-08T15:24:43.892Z,17.08
2022-10-08T15:27:10.952Z,17.06
2022-10-08T15:29:37.908Z,17.08
2022-10-08T15:32:05.048Z,17.06
2022-10-08T15:34:32.023Z,17.10
2022-10-08T15:36:58.977Z,17.09
2022-10-08T15:39:26.470Z,17.08
2022-10-08T15:41:55.169Z,17.03
2022-10-08T15:44:27.727Z,16.98
2022-10-08T15:47:05.985Z,16.95
2022-10-08T15:49:45.728Z,16.90
2022-10-08T15:52:22.367Z,16.87
2022-10-08T15:54:49.373Z,16.87
2022-10-08T15:57:18.250Z,16.86
2022-10-08T15:59:45.825Z,16.88
2022-10-08T16:02:17.180Z,16.88
2022-10-08T16:04:47.454Z,16.84
2022-10-08T16:07:14.949Z,16.76
2022-10-08T16:09:42.783Z,16.67
2022-10-08T16:12:12.768Z,16.57
2022-10-08T16:14:40.036Z,16.45
2022-10-08T16:17:07.156Z,16.35
2022-10-08T16:19:34.350Z,16.24
2022-10-08T16:22:01.453Z,16.17
2022-10-08T16:24:28.770Z,16.08
2022-10-08T16:26:55.981Z,16.02
2022-10-08T16:29:22.996Z,15.92
2022-10-08T16:31:50.049Z,15.83
2022-10-08T16:34:24.770Z,15.74
2022-10-08T16:36:51.845Z,15.65
2022-10-08T16:39:21.313Z,15.56
2022-10-08T16:41:49.597Z,15.47
2022-10-08T16:44:19.910Z,15.38
2022-10-08T16:46:51.020Z,15.28
2022-10-08T16:49:27.606Z,15.20
2022-10-08T16:52:01.638Z,15.08
2022-10-08T16:54:29.270Z,15.01
2022-10-08T16:56:57.522Z,14.96
2022-10-08T16:59:28.039Z,14.87
2022-10-08T17:01:59.217Z,14.77
2022-10-08T17:04:29.231Z,14.64
2022-10-08T17:06:56.512Z,14.56
2022-10-08T17:09:23.658Z,14.46
2022-10-08T17:11:51.763Z,14.35
2022-10-08T17:14:19.002Z,14.24
2022-10-08T17:16:46.222Z,14.14
2022-10-08T17:19:13.692Z,14.03
2022-10-08T17:21:41.148Z,13.95
2022-10-08T17:24:09.874Z,13.87
2022-10-08T17:26:37.338Z,13.79
2022-10-08T17:29:10.476Z,13.71
2022-10-08T17:31:38.568Z,13.61
2022-10-08T17:34:06.317Z,13.55
2022-10-08T17:36:37.226Z,13.49
2022-10-08T17:39:08.070Z,13.42
2022-10-08T17:41:38.571Z,13.33
2022-10-08T17:44:09.453Z,13.28
2022-10-08T17:46:43.816Z,13.21
2022-10-08T17:49:11.096Z,13.14
2022-10-08T17:51:38.328Z,13.05
2022-10-08T17:54:14.093Z,12.98
2022-10-08T17:56:41.292Z,12.92
2022-10-08T17:59:12.857Z,12.86
2022-10-08T18:01:44.597Z,12.80
2022-10-08T18:04:14.412Z,12.73
2022-10-08T18:06:43.899Z,12.67
2022-10-08T18:09:15.855Z,12.59
2022-10-08T18:11:46.092Z,12.53
2022-10-08T18:14:13.554Z,12.45
2022-10-08T18:16:44.256Z,12.38
2022-10-08T18:19:14.157Z,12.31
2022-10-08T18:21:41.229Z,12.25
2022-10-08T18:24:08.290Z,12.21
2022-10-08T18:26:37.018Z,12.16
2022-10-08T18:29:11.063Z,12.10
2022-10-08T18:31:40.971Z,12.05
2022-10-08T18:34:13.737Z,11.98
2022-10-08T18:36:40.900Z,11.95
2022-10-08T18:39:23.536Z,11.89
2022-10-08T18:41:54.487Z,11.83
2022-10-08T18:44:24.564Z,11.76
2022-10-08T18:46:52.659Z,11.72
2022-10-08T18:49:28.999Z,11.68
2022-10-08T18:51:57.281Z,11.64
2022-10-08T18:54:24.430Z,11.59
2022-10-08T18:56:51.468Z,11.55
2022-10-08T18:59:19.039Z,11.51
2022-10-08T19:01:47.816Z,11.46
2022-10-08T19:04:19.287Z,11.42
2022-10-08T19:06:48.427Z,11.37
2022-10-08T19:09:16.145Z,11.37
2022-10-08T19:11:47.544Z,11.32
2022-10-08T19:14:18.521Z,11.27
2022-10-08T19:16:46.533Z,11.23
2022-10-08T19:19:19.924Z,11.17
2022-10-08T19:21:48.253Z,11.17
2022-10-08T19:24:22.002Z,11.14
2022-10-08T19:26:50.169Z,11.09
2022-10-08T19:29:24.160Z,11.08
2022-10-08T19:31:51.530Z,11.04
2022-10-08T19:34:23.095Z,10.99
2022-10-08T19:36:50.648Z,10.96
2022-10-08T19:39:22.014Z,10.93
2022-10-08T19:41:49.950Z,10.89
2022-10-08T19:44:18.047Z,10.84
2022-10-08T19:46:45.941Z,10.82
2022-10-08T19:49:13.663Z,10.76
2022-10-08T19:51:42.542Z,10.70
2022-10-08T19:54:10.457Z,10.66
2022-10-08T19:56:37.692Z,10.61
2022-10-08T19:59:05.996Z,10.58
2022-10-08T20:01:36.474Z,10.54
2022-10-08T20:04:05.681Z,10.50
2022-10-08T20:06:35.749Z,10.45
2022-10-08T20:09:05.828Z,10.41
2022-10-08T20:11:33.248Z,10.37
2022-10-08T20:14:00.921Z,10.33
2022-10-08T20:16:32.029Z,10.29
2022-10-08T20:19:05.790Z,10.25
2022-10-08T20:21:37.921Z,10.21
2022-10-08T20:24:06.358Z,10.19
2022-10-08T20:26:39.352Z,10.14
2022-10-08T20:29:13.708Z,10.10
2022-10-08T20:31:49.553Z,10.05
2022-10-08T20:34:23.656Z,10.03
2022-10-08T20:36:51.542Z,10.00
2022-10-08T20:39:21.406Z,9.97
2022-10-08T20:41:49.581Z,9.94
2022-10-08T20:44:17.126Z,9.91
2022-10-08T20:46:44.848Z,9.87
2022-10-08T20:49:13.422Z,9.83
2022-10-08T20:51:42.977Z,9.80
2022-10-08T20:54:13.973Z,9.80
2022-10-08T20:56:42.938Z,9.76
2022-10-08T20:59:17.156Z,9.73
2022-10-08T21:01:45.123Z,9.68
2022-10-08T21:04:12.619Z,9.65
2022-10-08T21:06:43.499Z,9.61
2022-10-08T21:09:11.690Z,9.58
2022-10-08T21:11:39.619Z,9.53
2022-10-08T21:14:08.484Z,9.49
2022-10-08T21:16:39.725Z,9.42
2022-10-08T21:19:12.503Z,9.38
2022-10-08T21:21:40.018Z,9.32
2022-10-08T21:24:08.221Z,9.30
2022-10-08T21:26:39.026Z,9.30
2022-10-08T21:29:11.868Z,9.29
2022-10-08T21:31:40.698Z,9.26
2022-10-08T21:34:08.371Z,9.25
2022-10-08T21:36:38.989Z,9.22
2022-10-08T21:39:09.101Z,9.19
2022-10-08T21:41:37.552Z,9.15
2022-10-08T21:44:07.292Z,9.15
2022-10-08T21:46:38.444Z,9.13
2022-10-08T21:49:13.022Z,9.10
2022-10-08T21:51:44.614Z,9.07
2022-10-08T21:54:14.731Z,9.04
2022-10-08T21:56:43.109Z,9.01
2022-10-08T21:59:16.166Z,8.96
2022-10-08T22:01:48.784Z,8.94
2022-10-08T22:04:22.175Z,8.91
2022-10-08T22:06:54.990Z,8.88
2022-10-08T22:09:26.012Z,8.88
2022-10-08T22:11:54.767Z,8.84
2022-10-08T22:14:22.347Z,8.80
2022-10-08T22:16:49.461Z,8.79
2022-10-08T22:19:17.501Z,8.76
2022-10-08T22:21:44.924Z,8.74
2022-10-08T22:24:12.707Z,8.71
2022-10-08T22:26:45.001Z,8.68
2022-10-08T22:29:12.611Z,8.67
2022-10-08T22:31:39.910Z,8.65
2022-10-08T22:34:07.479Z,8.63
2022-10-08T22:36:41.015Z,8.60
2022-10-08T22:39:09.360Z,8.58
2022-10-08T22:41:37.537Z,8.56
2022-10-08T22:44:05.294Z,8.51
2022-10-08T22:46:38.797Z,8.48
2022-10-08T22:49:14.173Z,8.45
2022-10-08T22:51:46.066Z,8.41
2022-10-08T22:54:15.580Z,8.37
2022-10-08T22:56:48.323Z,8.36
2022-10-08T22:59:15.881Z,8.35
2022-10-08T23:01:42.810Z,8.33
2022-10-08T23:04:09.833Z,8.32
2022-10-08T23:06:36.836Z,8.29
2022-10-08T23:09:20.606Z,8.25
2022-10-08T23:11:49.736Z,8.23
2022-10-08T23:14:16.792Z,8.17
2022-10-08T23:16:43.923Z,8.15
2022-10-08T23:19:11.826Z,8.12
2022-10-08T23:21:40.261Z,8.10
2022-10-08T23:24:09.540Z,8.11
2022-10-08T23:26:36.708Z,8.09
2022-10-08T23:29:05.231Z,8.07
2022-10-08T23:31:35.716Z,8.03
2022-10-08T23:34:04.971Z,8.01
2022-10-08T23:36:43.067Z,8.00
2022-10-08T23:39:15.178Z,7.97
2022-10-08T23:41:42.525Z,7.97
2022-10-08T23:44:11.741Z,7.94
2022-10-08T23:46:38.772Z,7.92
2022-10-08T23:49:05.906Z,7.88
2022-10-08T23:51:34.121Z,7.86
2022-10-08T23:54:01.399Z,7.83
2022-10-08T23:56:28.917Z,7.80
2022-10-08T23:58:56.414Z,7.78
